sensor_id;sensor_type;location;lat;lon;timestamp;temperature;humidity
3705;DHT22;1868;48.918;9.438;2022-12-24T00:01:34;12.00;97.40
3705;DHT22;1868;48.918;9.438;2022-12-24T00:04:02;12.00;97.40
3705;DHT22;1868;48.918;9.438;2022-12-24T00:06:31;12.00;97.40
3705;DHT22;1868;48.918;9.438;2022-12-24T00:08:59;12.00;97.40
3705;DHT22;1868;48.918;9.438;2022-12-24T00:11:27;12.10;97.40
3705;DHT22;1868;48.918;9.438;2022-12-24T00:13:57;12.10;97.40
3705;DHT22;1868;48.918;9.438;2022-12-24T00:16:25;12.00;97.40
3705;DHT22;1868;48.918;9.438;2022-12-24T00:18:54;12.10;97.40
3705;DHT22;1868;48.918;9.438;2022-12-24T00:21:22;12.10;97.40
3705;DHT22;1868;48.918;9.438;2022-12-24T00:23:51;12.10;97.40
3705;DHT22;1868;48.918;9.438;2022-12-24T00:26:19;12.10;97.40
3705;DHT22;1868;48.918;9.438;2022-12-24T00:28:47;12.00;97.40
3705;DHT22;1868;48.918;9.438;2022-12-24T00:31:17;12.00;97.40
3705;DHT22;1868;48.918;9.438;2022-12-24T00:33:46;12.10;97.40
3705;DHT22;1868;48.918;9.438;2022-12-24T00:36:15;12.00;97.40
3705;DHT22;1868;48.918;9.438;2022-12-24T00:38:45;12.00;97.40
3705;DHT22;1868;48.918;9.438;2022-12-24T00:41:16;12.00;97.40
3705;DHT22;1868;48.918;9.438;2022-12-24T00:43:59;11.90;97.40
3705;DHT22;1868;48.918;9.438;2022-12-24T00:46:30;11.90;97.40
3705;DHT22;1868;48.918;9.438;2022-12-24T00:49:00;11.90;97.40
3705;DHT22;1868;48.918;9.438;2022-12-24T00:51:29;11.90;97.40
3705;DHT22;1868;48.918;9.438;2022-12-24T00:53:57;11.90;97.40
3705;DHT22;1868;48.918;9.438;2022-12-24T00:56:25;11.90;97.40
3705;DHT22;1868;48.918;9.438;2022-12-24T00:58:54;11.90;97.40
3705;DHT22;1868;48.918;9.438;2022-12-24T01:01:23;11.90;97.40
3705;DHT22;1868;48.918;9.438;2022-12-24T01:03:53;11.90;97.40
3705;DHT22;1868;48.918;9.438;2022-12-24T01:06:43;11.90;97.40
3705;DHT22;1868;48.918;9.438;2022-12-24T01:09:10;11.90;97.40
3705;DHT22;1868;48.918;9.438;2022-12-24T01:11:38;11.90;97.40
3705;DHT22;1868;48.918;9.438;2022-12-24T01:14:06;11.90;97.40
3705;DHT22;1868;48.918;9.438;2022-12-24T01:16:35;11.90;97.40
3705;DHT22;1868;48.918;9.438;2022-12-24T01:19:04;11.90;97.40
3705;DHT22;1868;48.918;9.438;2022-12-24T01:21:32;11.90;97.40
3705;DHT22;1868;48.918;9.438;2022-12-24T01:24:03;11.90;97.40
3705;DHT22;1868;48.918;9.438;2022-12-24T01:26:51;11.90;97.40
3705;DHT22;1868;48.918;9.438;2022-12-24T01:29:19;11.80;97.40
3705;DHT22;1868;48.918;9.438;2022-12-24T01:31:48;11.80;97.40
3705;DHT22;1868;48.918;9.438;2022-12-24T01:34:17;11.80;97.40
3705;DHT22;1868;48.918;9.438;2022-12-24T01:36:45;11.70;97.40
3705;DHT22;1868;48.918;9.438;2022-12-24T01:39:14;11.70;97.40
3705;DHT22;1868;48.918;9.438;2022-12-24T01:41:42;11.70;97.40
3705;DHT22;1868;48.918;9.438;2022-12-24T01:44:29;11.60;97.40
3705;DHT22;1868;48.918;9.438;2022-12-24T01:47:07;11.60;97.40
3705;DHT22;1868;48.918;9.438;2022-12-24T01:49:40;11.50;97.40
3705;DHT22;1868;48.918;9.438;2022-12-24T01:52:13;11.50;97.40
3705;DHT22;1868;48.918;9.438;2022-12-24T01:54:47;11.40;97.40
3705;DHT22;1868;48.918;9.438;2022-12-24T01:57:20;11.40;97.40
3705;DHT22;1868;48.918;9.438;2022-12-24T01:59:54;11.40;97.40
3705;DHT22;1868;48.918;9.438;2022-12-24T02:02:25;11.40;97.40
3705;DHT22;1868;48.918;9.438;2022-12-24T02:04:57;11.40;97.40
3705;DHT22;1868;48.918;9.438;2022-12-24T02:07:30;11.40;97.40
3705;DHT22;1868;48.918;9.438;2022-12-24T02:10:00;11.40;97.40
3705;DHT22;1868;48.918;9.438;2022-12-24T02:12:31;11.40;97.40
3705;DHT22;1868;48.918;9.438;2022-12-24T02:15:02;11.30;97.40
3705;DHT22;1868;48.918;9.438;2022-12-24T02:17:38;11.30;97.40
3705;DHT22;1868;48.918;9.438;2022-12-24T02:20:42;11.20;97.40
3705;DHT22;1868;48.918;9.438;2022-12-24T02:23:33;11.30;97.40
3705;DHT22;1868;48.918;9.438;2022-12-24T02:26:22;11.20;97.40
3705;DHT22;1868;48.918;9.438;2022-12-24T02:29:13;11.20;97.40
3705;DHT22;1868;48.918;9.438;2022-12-24T02:31:51;11.10;97.40
3705;DHT22;1868;48.918;9.438;2022-12-24T02:34:27;11.10;97.40
3705;DHT22;1868;48.918;9.438;2022-12-24T02:37:02;11.20;97.40
3705;DHT22;1868;48.918;9.438;2022-12-24T02:39:37;11.10;97.40
3705;DHT22;1868;48.918;9.438;2022-12-24T02:42:08;11.20;97.40
3705;DHT22;1868;48.918;9.438;2022-12-24T02:44:39;11.10;97.40
3705;DHT22;1868;48.918;9.438;2022-12-24T02:47:13;11.10;97.40
3705;DHT22;1868;48.918;9.438;2022-12-24T02:49:43;11.10;97.40
3705;DHT22;1868;48.918;9.438;2022-12-24T02:52:30;11.10;97.40
3705;DHT22;1868;48.918;9.438;2022-12-24T02:55:01;11.10;97.40
3705;DHT22;1868;48.918;9.438;2022-12-24T02:57:49;11.10;97.40
3705;DHT22;1868;48.918;9.438;2022-12-24T03:00:26;11.10;97.40
3705;DHT22;1868;48.918;9.438;2022-12-24T03:03:13;11.00;97.40
3705;DHT22;1868;48.918;9.438;2022-12-24T03:05:54;11.00;97.40
3705;DHT22;1868;48.918;9.438;2022-12-24T03:08:31;11.00;97.40
3705;DHT22;1868;48.918;9.438;2022-12-24T03:11:08;10.90;97.40
3705;DHT22;1868;48.918;9.438;2022-12-24T03:13:39;10.90;97.40
3705;DHT22;1868;48.918;9.438;2022-12-24T03:16:10;10.80;97.40
3705;DHT22;1868;48.918;9.438;2022-12-24T03:18:45;10.70;97.40
3705;DHT22;1868;48.918;9.438;2022-12-24T03:21:18;10.70;97.40
3705;DHT22;1868;48.918;9.438;2022-12-24T03:23:49;10.70;97.40
3705;DHT22;1868;48.918;9.438;2022-12-24T03:26:19;10.70;97.40
3705;DHT22;1868;48.918;9.438;2022-12-24T03:28:48;10.70;97.40
3705;DHT22;1868;48.918;9.438;2022-12-24T03:31:17;10.70;97.40
3705;DHT22;1868;48.918;9.438;2022-12-24T03:33:47;10.60;97.40
3705;DHT22;1868;48.918;9.438;2022-12-24T03:36:15;10.60;97.40
3705;DHT22;1868;48.918;9.438;2022-12-24T03:38:44;10.60;97.40
3705;DHT22;1868;48.918;9.438;2022-12-24T03:41:12;10.60;97.40
3705;DHT22;1868;48.918;9.438;2022-12-24T03:43:40;10.60;97.40
3705;DHT22;1868;48.918;9.438;2022-12-24T03:46:09;10.50;97.40
3705;DHT22;1868;48.918;9.438;2022-12-24T03:48:37;10.50;97.40
3705;DHT22;1868;48.918;9.438;2022-12-24T03:51:15;10.40;97.40
3705;DHT22;1868;48.918;9.438;2022-12-24T03:53:44;10.40;97.40
3705;DHT22;1868;48.918;9.438;2022-12-24T03:56:13;10.40;97.40
3705;DHT22;1868;48.918;9.438;2022-12-24T03:58:42;10.40;97.40
3705;DHT22;1868;48.918;9.438;2022-12-24T04:01:10;10.30;97.40
3705;DHT22;1868;48.918;9.438;2022-12-24T04:03:39;10.30;97.40
3705;DHT22;1868;48.918;9.438;2022-12-24T04:06:10;10.30;97.40
3705;DHT22;1868;48.918;9.438;2022-12-24T04:08:40;10.30;97.40
3705;DHT22;1868;48.918;9.438;2022-12-24T04:11:10;10.30;97.40
3705;DHT22;1868;48.918;9.438;2022-12-24T04:13:39;10.30;97.40
3705;DHT22;1868;48.918;9.438;2022-12-24T04:16:10;10.30;97.40
3705;DHT22;1868;48.918;9.438;2022-12-24T04:18:39;10.30;97.40
3705;DHT22;1868;48.918;9.438;2022-12-24T04:21:09;10.30;97.40
3705;DHT22;1868;48.918;9.438;2022-12-24T04:23:39;10.30;97.40
3705;DHT22;1868;48.918;9.438;2022-12-24T04:26:09;10.30;97.40
3705;DHT22;1868;48.918;9.438;2022-12-24T04:28:40;10.30;97.40
3705;DHT22;1868;48.918;9.438;2022-12-24T04:31:10;10.40;97.40
3705;DHT22;1868;48.918;9.438;2022-12-24T04:33:40;10.40;97.40
3705;DHT22;1868;48.918;9.438;2022-12-24T04:36:12;10.40;97.40
3705;DHT22;1868;48.918;9.438;2022-12-24T04:38:42;10.30;97.40
3705;DHT22;1868;48.918;9.438;2022-12-24T04:41:12;10.40;97.40
3705;DHT22;1868;48.918;9.438;2022-12-24T04:43:50;10.50;97.40
3705;DHT22;1868;48.918;9.438;2022-12-24T04:46:20;10.50;97.40
3705;DHT22;1868;48.918;9.438;2022-12-24T04:48:52;10.50;97.40
3705;DHT22;1868;48.918;9.438;2022-12-24T04:51:23;10.50;97.40
3705;DHT22;1868;48.918;9.438;2022-12-24T04:53:52;10.50;97.40
3705;DHT22;1868;48.918;9.438;2022-12-24T04:56:22;10.50;97.40
3705;DHT22;1868;48.918;9.438;2022-12-24T04:58:52;10.50;97.40
3705;DHT22;1868;48.918;9.438;2022-12-24T05:01:23;10.60;97.40
3705;DHT22;1868;48.918;9.438;2022-12-24T05:03:52;10.50;97.40
3705;DHT22;1868;48.918;9.438;2022-12-24T05:06:24;10.50;97.40
3705;DHT22;1868;48.918;9.438;2022-12-24T05:08:53;10.40;97.40
3705;DHT22;1868;48.918;9.438;2022-12-24T05:11:22;10.40;97.40
3705;DHT22;1868;48.918;9.438;2022-12-24T05:13:51;10.30;97.40
3705;DHT22;1868;48.918;9.438;2022-12-24T05:16:20;10.30;97.40
3705;DHT22;1868;48.918;9.438;2022-12-24T05:18:50;10.30;97.40
3705;DHT22;1868;48.918;9.438;2022-12-24T05:21:20;10.30;97.40
3705;DHT22;1868;48.918;9.438;2022-12-24T05:23:52;10.30;97.40
3705;DHT22;1868;48.918;9.438;2022-12-24T05:26:40;10.30;97.40
3705;DHT22;1868;48.918;9.438;2022-12-24T05:29:10;10.30;97.40
3705;DHT22;1868;48.918;9.438;2022-12-24T05:31:39;10.30;97.40
3705;DHT22;1868;48.918;9.438;2022-12-24T05:34:09;10.20;97.40
3705;DHT22;1868;48.918;9.438;2022-12-24T05:36:39;10.20;97.40
3705;DHT22;1868;48.918;9.438;2022-12-24T05:39:10;10.20;97.40
3705;DHT22;1868;48.918;9.438;2022-12-24T05:41:41;10.20;97.40
3705;DHT22;1868;48.918;9.438;2022-12-24T05:44:10;10.20;97.40
3705;DHT22;1868;48.918;9.438;2022-12-24T05:46:38;10.20;97.40
3705;DHT22;1868;48.918;9.438;2022-12-24T05:49:08;10.20;97.40
3705;DHT22;1868;48.918;9.438;2022-12-24T05:51:36;10.10;97.40
3705;DHT22;1868;48.918;9.438;2022-12-24T05:54:07;10.10;97.40
3705;DHT22;1868;48.918;9.438;2022-12-24T05:56:35;10.10;97.40
3705;DHT22;1868;48.918;9.438;2022-12-24T05:59:04;10.10;97.40
3705;DHT22;1868;48.918;9.438;2022-12-24T06:01:32;10.00;97.40
3705;DHT22;1868;48.918;9.438;2022-12-24T06:04:01;10.00;97.40
3705;DHT22;1868;48.918;9.438;2022-12-24T06:06:30;10.00;97.40
3705;DHT22;1868;48.918;9.438;2022-12-24T06:08:58;10.00;97.40
3705;DHT22;1868;48.918;9.438;2022-12-24T06:11:28;9.90;97.40
3705;DHT22;1868;48.918;9.438;2022-12-24T06:13:57;9.90;97.40
3705;DHT22;1868;48.918;9.438;2022-12-24T06:16:25;9.90;97.40
3705;DHT22;1868;48.918;9.438;2022-12-24T06:18:53;9.80;97.40
3705;DHT22;1868;48.918;9.438;2022-12-24T06:21:22;9.80;97.40
3705;DHT22;1868;48.918;9.438;2022-12-24T06:23:51;9.80;97.40
3705;DHT22;1868;48.918;9.438;2022-12-24T06:26:21;9.70;97.40
3705;DHT22;1868;48.918;9.438;2022-12-24T06:28:51;9.70;97.40
3705;DHT22;1868;48.918;9.438;2022-12-24T06:31:20;9.60;97.40
3705;DHT22;1868;48.918;9.438;2022-12-24T06:33:50;9.60;97.40
3705;DHT22;1868;48.918;9.438;2022-12-24T06:36:21;9.50;97.40
3705;DHT22;1868;48.918;9.438;2022-12-24T06:38:50;9.50;97.40
3705;DHT22;1868;48.918;9.438;2022-12-24T06:41:19;9.50;97.40
3705;DHT22;1868;48.918;9.438;2022-12-24T06:43:49;9.40;97.40
3705;DHT22;1868;48.918;9.438;2022-12-24T06:46:20;9.40;97.40
3705;DHT22;1868;48.918;9.438;2022-12-24T06:48:49;9.40;97.40
3705;DHT22;1868;48.918;9.438;2022-12-24T06:51:17;9.40;97.40
3705;DHT22;1868;48.918;9.438;2022-12-24T06:53:46;9.40;97.40
3705;DHT22;1868;48.918;9.438;2022-12-24T06:56:16;9.40;97.40
3705;DHT22;1868;48.918;9.438;2022-12-24T06:58:45;9.40;97.40
3705;DHT22;1868;48.918;9.438;2022-12-24T07:01:18;9.40;97.40
3705;DHT22;1868;48.918;9.438;2022-12-24T07:03:47;9.40;97.40
3705;DHT22;1868;48.918;9.438;2022-12-24T07:06:18;9.30;97.40
3705;DHT22;1868;48.918;9.438;2022-12-24T07:08:48;9.30;97.40
3705;DHT22;1868;48.918;9.438;2022-12-24T07:11:17;9.20;97.40
3705;DHT22;1868;48.918;9.438;2022-12-24T07:13:45;9.20;97.40
3705;DHT22;1868;48.918;9.438;2022-12-24T07:16:21;9.10;97.40
3705;DHT22;1868;48.918;9.438;2022-12-24T07:18:50;9.10;97.40
3705;DHT22;1868;48.918;9.438;2022-12-24T07:21:18;9.10;97.40
3705;DHT22;1868;48.918;9.438;2022-12-24T07:23:46;9.10;97.40
3705;DHT22;1868;48.918;9.438;2022-12-24T07:26:15;9.10;97.40
3705;DHT22;1868;48.918;9.438;2022-12-24T07:28:43;9.10;97.40
3705;DHT22;1868;48.918;9.438;2022-12-24T07:31:11;9.10;97.40
3705;DHT22;1868;48.918;9.438;2022-12-24T07:33:41;9.10;97.40
3705;DHT22;1868;48.918;9.438;2022-12-24T07:36:14;9.20;97.40
3705;DHT22;1868;48.918;9.438;2022-12-24T07:38:45;9.20;97.40
3705;DHT22;1868;48.918;9.438;2022-12-24T07:41:14;9.30;97.40
3705;DHT22;1868;48.918;9.438;2022-12-24T07:43:42;9.30;97.40
3705;DHT22;1868;48.918;9.438;2022-12-24T07:46:10;9.30;97.40
3705;DHT22;1868;48.918;9.438;2022-12-24T07:48:38;9.40;97.40
3705;DHT22;1868;48.918;9.438;2022-12-24T07:51:08;9.40;97.40
3705;DHT22;1868;48.918;9.438;2022-12-24T07:53:36;9.40;97.40
3705;DHT22;1868;48.918;9.438;2022-12-24T07:56:05;9.50;97.40
3705;DHT22;1868;48.918;9.438;2022-12-24T07:58:38;9.50;97.40
3705;DHT22;1868;48.918;9.438;2022-12-24T08:01:07;9.60;97.40
3705;DHT22;1868;48.918;9.438;2022-12-24T08:03:36;9.70;97.40
3705;DHT22;1868;48.918;9.438;2022-12-24T08:06:06;9.70;97.40
3705;DHT22;1868;48.918;9.438;2022-12-24T08:08:35;9.80;97.40
3705;DHT22;1868;48.918;9.438;2022-12-24T08:11:05;9.80;97.40
3705;DHT22;1868;48.918;9.438;2022-12-24T08:13:34;9.90;97.40
3705;DHT22;1868;48.918;9.438;2022-12-24T08:16:02;9.90;97.40
3705;DHT22;1868;48.918;9.438;2022-12-24T08:18:31;10.00;97.40
3705;DHT22;1868;48.918;9.438;2022-12-24T08:21:00;10.10;97.40
3705;DHT22;1868;48.918;9.438;2022-12-24T08:23:29;10.10;97.40
3705;DHT22;1868;48.918;9.438;2022-12-24T08:25:58;10.10;97.40
3705;DHT22;1868;48.918;9.438;2022-12-24T08:28:26;10.10;97.40
3705;DHT22;1868;48.918;9.438;2022-12-24T08:30:54;10.20;97.40
3705;DHT22;1868;48.918;9.438;2022-12-24T08:33:22;10.20;97.40
3705;DHT22;1868;48.918;9.438;2022-12-24T08:35:52;10.20;97.40
3705;DHT22;1868;48.918;9.438;2022-12-24T08:38:22;10.30;97.40
3705;DHT22;1868;48.918;9.438;2022-12-24T08:40:53;10.40;97.40
3705;DHT22;1868;48.918;9.438;2022-12-24T08:43:22;10.50;97.40
3705;DHT22;1868;48.918;9.438;2022-12-24T08:45:52;10.50;97.40
3705;DHT22;1868;48.918;9.438;2022-12-24T08:48:21;10.60;97.40
3705;DHT22;1868;48.918;9.438;2022-12-24T08:50:49;10.60;97.40
3705;DHT22;1868;48.918;9.438;2022-12-24T08:53:17;10.60;97.40
3705;DHT22;1868;48.918;9.438;2022-12-24T08:55:45;10.60;97.40
3705;DHT22;1868;48.918;9.438;2022-12-24T08:58:23;10.60;97.40
3705;DHT22;1868;48.918;9.438;2022-12-24T09:00:51;10.70;97.40
3705;DHT22;1868;48.918;9.438;2022-12-24T09:03:19;10.70;97.40
3705;DHT22;1868;48.918;9.438;2022-12-24T09:05:53;10.70;97.40
3705;DHT22;1868;48.918;9.438;2022-12-24T09:08:22;10.80;97.40
3705;DHT22;1868;48.918;9.438;2022-12-24T09:10:50;10.80;97.40
3705;DHT22;1868;48.918;9.438;2022-12-24T09:13:18;10.90;97.40
3705;DHT22;1868;48.918;9.438;2022-12-24T09:15:53;11.00;97.40
3705;DHT22;1868;48.918;9.438;2022-12-24T09:18:22;11.10;97.40
3705;DHT22;1868;48.918;9.438;2022-12-24T09:20:57;11.10;97.40
3705;DHT22;1868;48.918;9.438;2022-12-24T09:23:27;11.20;97.40
3705;DHT22;1868;48.918;9.438;2022-12-24T09:25:55;11.30;97.40
3705;DHT22;1868;48.918;9.438;2022-12-24T09:28:24;11.20;97.40
3705;DHT22;1868;48.918;9.438;2022-12-24T09:30:59;11.20;97.40
3705;DHT22;1868;48.918;9.438;2022-12-24T09:33:30;11.30;97.40
3705;DHT22;1868;48.918;9.438;2022-12-24T09:36:00;11.30;97.40
3705;DHT22;1868;48.918;9.438;2022-12-24T09:38:29;11.40;97.40
3705;DHT22;1868;48.918;9.438;2022-12-24T09:40:58;11.40;97.40
3705;DHT22;1868;48.918;9.438;2022-12-24T09:43:35;11.50;97.40
3705;DHT22;1868;48.918;9.438;2022-12-24T09:46:11;11.60;97.40
3705;DHT22;1868;48.918;9.438;2022-12-24T09:48:45;11.70;97.40
3705;DHT22;1868;48.918;9.438;2022-12-24T09:51:20;11.80;97.40
3705;DHT22;1868;48.918;9.438;2022-12-24T09:53:56;11.80;97.40
3705;DHT22;1868;48.918;9.438;2022-12-24T09:56:30;11.90;97.40
3705;DHT22;1868;48.918;9.438;2022-12-24T09:59:04;11.90;97.40
3705;DHT22;1868;48.918;9.438;2022-12-24T10:01:34;11.90;97.40
3705;DHT22;1868;48.918;9.438;2022-12-24T10:04:07;12.00;97.40
3705;DHT22;1868;48.918;9.438;2022-12-24T10:06:44;12.00;97.40
3705;DHT22;1868;48.918;9.438;2022-12-24T10:09:23;12.00;97.40
3705;DHT22;1868;48.918;9.438;2022-12-24T10:12:03;12.10;97.40
3705;DHT22;1868;48.918;9.438;2022-12-24T10:14:49;12.10;97.40
3705;DHT22;1868;48.918;9.438;2022-12-24T10:17:43;12.20;97.40
3705;DHT22;1868;48.918;9.438;2022-12-24T10:20:30;12.30;97.40
3705;DHT22;1868;48.918;9.438;2022-12-24T10:23:06;12.40;97.40
3705;DHT22;1868;48.918;9.438;2022-12-24T10:25:44;12.50;97.40
3705;DHT22;1868;48.918;9.438;2022-12-24T10:28:18;12.50;97.40
3705;DHT22;1868;48.918;9.438;2022-12-24T10:31:00;12.50;97.40
3705;DHT22;1868;48.918;9.438;2022-12-24T10:33:36;12.40;97.40
3705;DHT22;1868;48.918;9.438;2022-12-24T10:36:12;12.50;97.40
3705;DHT22;1868;48.918;9.438;2022-12-24T10:38:44;12.50;97.40
3705;DHT22;1868;48.918;9.438;2022-12-24T10:41:14;12.50;97.40
3705;DHT22;1868;48.918;9.438;2022-12-24T10:43:44;12.40;97.40
3705;DHT22;1868;48.918;9.438;2022-12-24T10:46:17;12.40;97.40
3705;DHT22;1868;48.918;9.438;2022-12-24T10:48:53;12.40;97.40
3705;DHT22;1868;48.918;9.438;2022-12-24T10:51:29;12.40;97.40
3705;DHT22;1868;48.918;9.438;2022-12-24T10:54:07;12.50;97.40
3705;DHT22;1868;48.918;9.438;2022-12-24T10:56:40;12.50;97.40
3705;DHT22;1868;48.918;9.438;2022-12-24T10:59:23;12.50;97.40
3705;DHT22;1868;48.918;9.438;2022-12-24T11:01:55;12.60;97.40
3705;DHT22;1868;48.918;9.438;2022-12-24T11:04:27;12.60;97.40
3705;DHT22;1868;48.918;9.438;2022-12-24T11:06:59;12.60;97.40
3705;DHT22;1868;48.918;9.438;2022-12-24T11:09:30;12.60;97.40
3705;DHT22;1868;48.918;9.438;2022-12-24T11:12:03;12.60;97.40
3705;DHT22;1868;48.918;9.438;2022-12-24T11:14:36;12.60;97.40
3705;DHT22;1868;48.918;9.438;2022-12-24T11:17:05;12.50;97.40
3705;DHT22;1868;48.918;9.438;2022-12-24T11:19:37;12.50;97.40
3705;DHT22;1868;48.918;9.438;2022-12-24T11:22:07;12.50;97.40
3705;DHT22;1868;48.918;9.438;2022-12-24T11:24:45;12.50;97.40
3705;DHT22;1868;48.918;9.438;2022-12-24T11:27:30;12.40;97.40
3705;DHT22;1868;48.918;9.438;2022-12-24T11:30:24;12.50;97.40
3705;DHT22;1868;48.918;9.438;2022-12-24T11:33:17;12.40;97.40
3705;DHT22;1868;48.918;9.438;2022-12-24T11:35:55;12.40;97.40
3705;DHT22;1868;48.918;9.438;2022-12-24T11:38:29;12.40;97.40
3705;DHT22;1868;48.918;9.438;2022-12-24T11:41:03;12.40;97.40
3705;DHT22;1868;48.918;9.438;2022-12-24T11:43:39;12.30;97.40
3705;DHT22;1868;48.918;9.438;2022-12-24T11:46:19;12.30;97.40
3705;DHT22;1868;48.918;9.438;2022-12-24T11:49:04;12.20;97.40
3705;DHT22;1868;48.918;9.438;2022-12-24T11:51:36;12.20;97.40
3705;DHT22;1868;48.918;9.438;2022-12-24T11:54:13;12.20;97.40
3705;DHT22;1868;48.918;9.438;2022-12-24T11:56:46;12.10;97.40
3705;DHT22;1868;48.918;9.438;2022-12-24T11:59:28;12.10;97.40
3705;DHT22;1868;48.918;9.438;2022-12-24T12:02:01;12.10;97.40
3705;DHT22;1868;48.918;9.438;2022-12-24T12:04:41;12.00;97.40
3705;DHT22;1868;48.918;9.438;2022-12-24T12:07:14;12.00;97.40
3705;DHT22;1868;48.918;9.438;2022-12-24T12:09:48;11.90;97.40
3705;DHT22;1868;48.918;9.438;2022-12-24T12:12:21;11.80;97.40
3705;DHT22;1868;48.918;9.438;2022-12-24T12:14:54;11.80;97.40
3705;DHT22;1868;48.918;9.438;2022-12-24T12:17:30;11.80;97.40
3705;DHT22;1868;48.918;9.438;2022-12-24T12:20:04;11.70;97.40
3705;DHT22;1868;48.918;9.438;2022-12-24T12:22:44;11.70;97.40
3705;DHT22;1868;48.918;9.438;2022-12-24T12:25:20;11.70;97.40
3705;DHT22;1868;48.918;9.438;2022-12-24T12:27:52;11.70;97.40
3705;DHT22;1868;48.918;9.438;2022-12-24T12:30:23;11.60;97.40
3705;DHT22;1868;48.918;9.438;2022-12-24T12:32:57;11.60;97.40
3705;DHT22;1868;48.918;9.438;2022-12-24T12:35:30;11.60;97.40
3705;DHT22;1868;48.918;9.438;2022-12-24T12:38:05;11.50;97.40
3705;DHT22;1868;48.918;9.438;2022-12-24T12:40:56;11.50;97.40
3705;DHT22;1868;48.918;9.438;2022-12-24T12:44:01;11.50;97.40
3705;DHT22;1868;48.918;9.438;2022-12-24T12:46:52;11.40;97.40
3705;DHT22;1868;48.918;9.438;2022-12-24T12:49:35;11.40;97.40
3705;DHT22;1868;48.918;9.438;2022-12-24T12:52:18;11.40;97.40
3705;DHT22;1868;48.918;9.438;2022-12-24T12:55:01;11.50;97.40
3705;DHT22;1868;48.918;9.438;2022-12-24T12:57:53;11.60;97.40
3705;DHT22;1868;48.918;9.438;2022-12-24T13:00:27;11.60;97.40
3705;DHT22;1868;48.918;9.438;2022-12-24T13:03:24;11.70;97.40
3705;DHT22;1868;48.918;9.438;2022-12-24T13:06:18;11.70;97.40
3705;DHT22;1868;48.918;9.438;2022-12-24T13:09:19;11.80;97.40
3705;DHT22;1868;48.918;9.438;2022-12-24T13:12:21;11.90;97.40
3705;DHT22;1868;48.918;9.438;2022-12-24T13:15:21;11.90;97.40
3705;DHT22;1868;48.918;9.438;2022-12-24T13:18:22;11.90;97.40
3705;DHT22;1868;48.918;9.438;2022-12-24T13:20:56;11.90;97.40
3705;DHT22;1868;48.918;9.438;2022-12-24T13:23:25;11.90;97.40
3705;DHT22;1868;48.918;9.438;2022-12-24T13:25:56;11.90;97.40
3705;DHT22;1868;48.918;9.438;2022-12-24T13:28:33;11.90;97.40
3705;DHT22;1868;48.918;9.438;2022-12-24T13:31:24;11.90;97.40
3705;DHT22;1868;48.918;9.438;2022-12-24T13:34:01;11.80;97.40
3705;DHT22;1868;48.918;9.438;2022-12-24T13:36:59;11.80;97.40
3705;DHT22;1868;48.918;9.438;2022-12-24T13:40:01;11.70;97.40
3705;DHT22;1868;48.918;9.438;2022-12-24T13:42:47;11.70;97.40
3705;DHT22;1868;48.918;9.438;2022-12-24T13:45:48;11.70;97.40
3705;DHT22;1868;48.918;9.438;2022-12-24T13:48:31;11.70;97.40
3705;DHT22;1868;48.918;9.438;2022-12-24T13:51:01;11.70;97.40
3705;DHT22;1868;48.918;9.438;2022-12-24T13:53:46;11.70;97.40
3705;DHT22;1868;48.918;9.438;2022-12-24T13:56:30;11.70;97.40
3705;DHT22;1868;48.918;9.438;2022-12-24T13:59:11;11.70;97.40
3705;DHT22;1868;48.918;9.438;2022-12-24T14:01:52;11.60;97.40
3705;DHT22;1868;48.918;9.438;2022-12-24T14:04:23;11.50;97.40
3705;DHT22;1868;48.918;9.438;2022-12-24T14:06:54;11.50;97.40
3705;DHT22;1868;48.918;9.438;2022-12-24T14:09:26;11.40;97.40
3705;DHT22;1868;48.918;9.438;2022-12-24T14:15:57;11.30;97.40
3705;DHT22;1868;48.918;9.438;2022-12-24T14:18:31;11.20;97.40
3705;DHT22;1868;48.918;9.438;2022-12-24T14:21:03;11.10;97.40
3705;DHT22;1868;48.918;9.438;2022-12-24T14:23:42;11.10;97.40
3705;DHT22;1868;48.918;9.438;2022-12-24T14:26:16;11.10;97.40
3705;DHT22;1868;48.918;9.438;2022-12-24T14:28:52;11.10;97.40
3705;DHT22;1868;48.918;9.438;2022-12-24T14:31:22;11.10;97.40
3705;DHT22;1868;48.918;9.438;2022-12-24T14:34:05;11.10;97.40
3705;DHT22;1868;48.918;9.438;2022-12-24T14:36:34;11.00;97.40
3705;DHT22;1868;48.918;9.438;2022-12-24T14:39:05;11.00;97.40
3705;DHT22;1868;48.918;9.438;2022-12-24T14:41:43;11.00;97.40
3705;DHT22;1868;48.918;9.438;2022-12-24T14:44:20;10.90;97.40
3705;DHT22;1868;48.918;9.438;2022-12-24T14:47:03;10.90;97.40
3705;DHT22;1868;48.918;9.438;2022-12-24T14:49:45;10.90;97.40
3705;DHT22;1868;48.918;9.438;2022-12-24T14:52:29;10.80;97.40
3705;DHT22;1868;48.918;9.438;2022-12-24T14:55:30;10.80;97.40
3705;DHT22;1868;48.918;9.438;2022-12-24T14:58:22;10.80;97.40
3705;DHT22;1868;48.918;9.438;2022-12-24T15:00:54;10.70;97.40
3705;DHT22;1868;48.918;9.438;2022-12-24T15:03:25;10.70;97.40
3705;DHT22;1868;48.918;9.438;2022-12-24T15:05:57;10.70;97.40
3705;DHT22;1868;48.918;9.438;2022-12-24T15:08:30;10.60;97.40
3705;DHT22;1868;48.918;9.438;2022-12-24T15:11:02;10.50;97.40
3705;DHT22;1868;48.918;9.438;2022-12-24T15:13:34;10.40;97.40
3705;DHT22;1868;48.918;9.438;2022-12-24T15:16:05;10.30;97.40
3705;DHT22;1868;48.918;9.438;2022-12-24T15:18:38;10.30;97.40
3705;DHT22;1868;48.918;9.438;2022-12-24T15:21:15;10.30;97.40
3705;DHT22;1868;48.918;9.438;2022-12-24T15:23:50;10.20;97.40
3705;DHT22;1868;48.918;9.438;2022-12-24T15:26:25;10.10;97.40
3705;DHT22;1868;48.918;9.438;2022-12-24T15:28:56;10.00;97.40
3705;DHT22;1868;48.918;9.438;2022-12-24T15:31:30;10.00;97.40
3705;DHT22;1868;48.918;9.438;2022-12-24T15:33:58;9.90;97.40
3705;DHT22;1868;48.918;9.438;2022-12-24T15:36:30;9.90;97.40
3705;DHT22;1868;48.918;9.438;2022-12-24T15:39:02;9.90;97.40
3705;DHT22;1868;48.918;9.438;2022-12-24T15:41:35;9.80;97.40
3705;DHT22;1868;48.918;9.438;2022-12-24T15:44:25;9.80;97.40
3705;DHT22;1868;48.918;9.438;2022-12-24T15:46:58;9.70;97.40
3705;DHT22;1868;48.918;9.438;2022-12-24T15:49:27;9.70;97.40
3705;DHT22;1868;48.918;9.438;2022-12-24T15:52:03;9.70;97.40
3705;DHT22;1868;48.918;9.438;2022-12-24T15:54:33;9.70;97.40
3705;DHT22;1868;48.918;9.438;2022-12-24T15:57:12;9.70;97.40
3705;DHT22;1868;48.918;9.438;2022-12-24T15:59:42;9.60;97.40
3705;DHT22;1868;48.918;9.438;2022-12-24T16:02:33;9.60;97.40
3705;DHT22;1868;48.918;9.438;2022-12-24T16:05:34;9.50;97.40
3705;DHT22;1868;48.918;9.438;2022-12-24T16:08:24;9.50;97.40
3705;DHT22;1868;48.918;9.438;2022-12-24T16:11:13;9.50;97.40
3705;DHT22;1868;48.918;9.438;2022-12-24T16:13:59;9.40;97.40
3705;DHT22;1868;48.918;9.438;2022-12-24T16:16:34;9.40;97.40
3705;DHT22;1868;48.918;9.438;2022-12-24T16:19:04;9.40;97.40
3705;DHT22;1868;48.918;9.438;2022-12-24T16:21:36;9.30;97.40
3705;DHT22;1868;48.918;9.438;2022-12-24T16:24:14;9.30;97.40
3705;DHT22;1868;48.918;9.438;2022-12-24T16:26:44;9.30;97.40
3705;DHT22;1868;48.918;9.438;2022-12-24T16:29:16;9.30;97.40
3705;DHT22;1868;48.918;9.438;2022-12-24T16:31:47;9.30;97.40
3705;DHT22;1868;48.918;9.438;2022-12-24T16:34:26;9.30;97.40
3705;DHT22;1868;48.918;9.438;2022-12-24T16:36:56;9.30;97.40
3705;DHT22;1868;48.918;9.438;2022-12-24T16:39:29;9.30;97.40
3705;DHT22;1868;48.918;9.438;2022-12-24T16:42:02;9.30;97.40
3705;DHT22;1868;48.918;9.438;2022-12-24T16:44:51;9.30;97.40
3705;DHT22;1868;48.918;9.438;2022-12-24T16:47:24;9.30;97.40
3705;DHT22;1868;48.918;9.438;2022-12-24T16:49:55;9.30;97.40
3705;DHT22;1868;48.918;9.438;2022-12-24T16:52:26;9.30;97.40